sensor_id;sensor_type;location;lat;lon;timestamp;P1;durP1;ratioP1;P2;durP2;ratioP2
16977;SDS011;8605;52.548;4.918;2022-12-05T00:04:40;18.63;;;10.17;;
16977;SDS011;8605;52.548;4.918;2022-12-05T00:10:03;14.60;;;7.83;;
16977;SDS011;8605;52.548;4.918;2022-12-05T00:15:29;17.57;;;9.90;;
16977;SDS011;8605;52.548;4.918;2022-12-05T00:20:52;15.87;;;9.10;;
16977;SDS011;8605;52.548;4.918;2022-12-05T00:26:15;20.77;;;8.83;;
16977;SDS011;8605;52.548;4.918;2022-12-05T00:31:40;19.00;;;8.30;;
16977;SDS011;8605;52.548;4.918;2022-12-05T00:37:03;16.10;;;8.50;;
16977;SDS011;8605;52.548;4.918;2022-12-05T00:42:26;14.73;;;7.33;;
16977;SDS011;8605;52.548;4.918;2022-12-05T00:47:51;14.83;;;8.30;;
16977;SDS011;8605;52.548;4.918;2022-12-05T00:53:14;17.30;;;8.40;;
16977;SDS011;8605;52.548;4.918;2022-12-05T00:58:37;18.53;;;8.57;;
16977;SDS011;8605;52.548;4.918;2022-12-05T01:04:03;12.93;;;6.97;;
16977;SDS011;8605;52.548;4.918;2022-12-05T01:09:27;15.57;;;7.13;;
16977;SDS011;8605;52.548;4.918;2022-12-05T01:14:50;15.97;;;8.07;;
16977;SDS011;8605;52.548;4.918;2022-12-05T01:20:14;13.87;;;7.23;;
16977;SDS011;8605;52.548;4.918;2022-12-05T01:25:38;13.83;;;7.93;;
16977;SDS011;8605;52.548;4.918;2022-12-05T01:31:03;14.93;;;7.60;;
16977;SDS011;8605;52.548;4.918;2022-12-05T01:36:28;20.13;;;7.97;;
16977;SDS011;8605;52.548;4.918;2022-12-05T01:41:52;15.67;;;9.20;;
16977;SDS011;8605;52.548;4.918;2022-12-05T01:47:15;15.67;;;7.20;;
16977;SDS011;8605;52.548;4.918;2022-12-05T01:52:40;17.67;;;8.50;;
16977;SDS011;8605;52.548;4.918;2022-12-05T01:58:04;13.73;;;7.00;;
16977;SDS011;8605;52.548;4.918;2022-12-05T02:03:28;14.87;;;7.70;;
16977;SDS011;8605;52.548;4.918;2022-12-05T02:08:52;20.77;;;8.47;;
16977;SDS011;8605;52.548;4.918;2022-12-05T02:14:19;15.03;;;8.00;;
16977;SDS011;8605;52.548;4.918;2022-12-05T02:19:50;19.47;;;8.60;;
16977;SDS011;8605;52.548;4.918;2022-12-05T02:25:41;14.77;;;7.37;;
16977;SDS011;8605;52.548;4.918;2022-12-05T02:31:15;22.97;;;9.30;;
16977;SDS011;8605;52.548;4.918;2022-12-05T02:36:41;19.20;;;7.77;;
16977;SDS011;8605;52.548;4.918;2022-12-05T02:42:07;17.50;;;6.70;;
16977;SDS011;8605;52.548;4.918;2022-12-05T02:47:34;16.57;;;8.63;;
16977;SDS011;8605;52.548;4.918;2022-12-05T02:53:01;16.23;;;8.13;;
16977;SDS011;8605;52.548;4.918;2022-12-05T02:58:28;13.67;;;7.23;;
16977;SDS011;8605;52.548;4.918;2022-12-05T03:03:55;14.53;;;7.07;;
16977;SDS011;8605;52.548;4.918;2022-12-05T03:09:20;16.93;;;8.17;;
16977;SDS011;8605;52.548;4.918;2022-12-05T03:14:46;16.90;;;7.13;;
16977;SDS011;8605;52.548;4.918;2022-12-05T03:20:17;17.77;;;7.77;;
16977;SDS011;8605;52.548;4.918;2022-12-05T03:25:45;12.60;;;7.80;;
16977;SDS011;8605;52.548;4.918;2022-12-05T03:31:13;19.23;;;7.90;;
16977;SDS011;8605;52.548;4.918;2022-12-05T03:36:38;22.80;;;8.93;;
16977;SDS011;8605;52.548;4.918;2022-12-05T03:42:06;19.20;;;8.83;;
16977;SDS011;8605;52.548;4.918;2022-12-05T03:47:32;18.33;;;9.60;;
16977;SDS011;8605;52.548;4.918;2022-12-05T03:53:01;27.13;;;9.83;;
16977;SDS011;8605;52.548;4.918;2022-12-05T03:58:42;20.53;;;9.63;;
16977;SDS011;8605;52.548;4.918;2022-12-05T04:04:07;19.60;;;9.40;;
16977;SDS011;8605;52.548;4.918;2022-12-05T04:09:36;23.13;;;11.23;;
16977;SDS011;8605;52.548;4.918;2022-12-05T04:15:02;24.03;;;9.77;;
16977;SDS011;8605;52.548;4.918;2022-12-05T04:20:28;22.13;;;9.90;;
16977;SDS011;8605;52.548;4.918;2022-12-05T04:26:15;20.80;;;9.57;;
16977;SDS011;8605;52.548;4.918;2022-12-05T04:31:46;24.17;;;10.17;;
16977;SDS011;8605;52.548;4.918;2022-12-05T04:37:12;22.70;;;10.10;;
16977;SDS011;8605;52.548;4.918;2022-12-05T04:42:41;23.20;;;9.87;;
16977;SDS011;8605;52.548;4.918;2022-12-05T04:48:06;20.30;;;9.13;;
16977;SDS011;8605;52.548;4.918;2022-12-05T04:53:33;15.63;;;7.93;;
16977;SDS011;8605;52.548;4.918;2022-12-05T04:58:58;17.90;;;8.13;;
16977;SDS011;8605;52.548;4.918;2022-12-05T05:04:24;14.30;;;7.50;;
16977;SDS011;8605;52.548;4.918;2022-12-05T05:09:49;20.17;;;8.97;;
16977;SDS011;8605;52.548;4.918;2022-12-05T05:15:13;18.63;;;9.00;;
16977;SDS011;8605;52.548;4.918;2022-12-05T05:20:37;18.23;;;9.43;;
16977;SDS011;8605;52.548;4.918;2022-12-05T05:26:01;16.23;;;7.77;;
16977;SDS011;8605;52.548;4.918;2022-12-05T05:31:25;14.23;;;6.83;;
16977;SDS011;8605;52.548;4.918;2022-12-05T05:36:50;13.77;;;7.03;;
16977;SDS011;8605;52.548;4.918;2022-12-05T05:42:13;12.97;;;7.10;;
16977;SDS011;8605;52.548;4.918;2022-12-05T05:47:38;14.03;;;7.47;;
16977;SDS011;8605;52.548;4.918;2022-12-05T05:53:01;13.60;;;7.43;;
16977;SDS011;8605;52.548;4.918;2022-12-05T05:58:24;10.53;;;5.60;;
16977;SDS011;8605;52.548;4.918;2022-12-05T06:03:48;10.47;;;5.80;;
16977;SDS011;8605;52.548;4.918;2022-12-05T06:09:12;9.23;;;4.50;;
16977;SDS011;8605;52.548;4.918;2022-12-05T06:14:35;9.67;;;4.97;;
16977;SDS011;8605;52.548;4.918;2022-12-05T06:20:00;9.13;;;5.33;;
16977;SDS011;8605;52.548;4.918;2022-12-05T06:25:23;9.47;;;4.27;;
16977;SDS011;8605;52.548;4.918;2022-12-05T06:30:46;11.63;;;6.40;;
16977;SDS011;8605;52.548;4.918;2022-12-05T06:36:11;6.47;;;4.00;;
16977;SDS011;8605;52.548;4.918;2022-12-05T06:41:35;8.77;;;4.83;;
16977;SDS011;8605;52.548;4.918;2022-12-05T06:46:59;8.03;;;4.77;;
16977;SDS011;8605;52.548;4.918;2022-12-05T06:52:23;10.47;;;5.20;;
16977;SDS011;8605;52.548;4.918;2022-12-05T06:57:46;7.17;;;4.77;;
16977;SDS011;8605;52.548;4.918;2022-12-05T07:03:12;9.40;;;5.43;;
16977;SDS011;8605;52.548;4.918;2022-12-05T07:08:37;7.23;;;4.40;;
16977;SDS011;8605;52.548;4.918;2022-12-05T07:14:03;7.50;;;3.80;;
16977;SDS011;8605;52.548;4.918;2022-12-05T07:19:39;9.87;;;4.77;;
16977;SDS011;8605;52.548;4.918;2022-12-05T07:25:04;7.80;;;4.73;;
16977;SDS011;8605;52.548;4.918;2022-12-05T07:30:28;7.50;;;4.30;;
16977;SDS011;8605;52.548;4.918;2022-12-05T07:35:52;6.43;;;4.07;;
16977;SDS011;8605;52.548;4.918;2022-12-05T07:41:18;7.20;;;4.00;;
16977;SDS011;8605;52.548;4.918;2022-12-05T07:46:42;6.67;;;4.50;;
16977;SDS011;8605;52.548;4.918;2022-12-05T07:52:05;6.67;;;3.77;;
16977;SDS011;8605;52.548;4.918;2022-12-05T07:57:30;8.27;;;4.53;;
16977;SDS011;8605;52.548;4.918;2022-12-05T08:02:53;6.87;;;4.00;;
16977;SDS011;8605;52.548;4.918;2022-12-05T08:08:16;9.70;;;4.40;;
16977;SDS011;8605;52.548;4.918;2022-12-05T08:13:41;9.90;;;4.67;;
16977;SDS011;8605;52.548;4.918;2022-12-05T08:19:05;7.33;;;4.07;;
16977;SDS011;8605;52.548;4.918;2022-12-05T08:24:29;11.00;;;5.43;;
16977;SDS011;8605;52.548;4.918;2022-12-05T08:29:54;9.23;;;5.63;;
16977;SDS011;8605;52.548;4.918;2022-12-05T08:35:17;9.87;;;4.80;;
16977;SDS011;8605;52.548;4.918;2022-12-05T08:40:40;9.17;;;4.50;;
16977;SDS011;8605;52.548;4.918;2022-12-05T08:46:07;9.30;;;4.80;;
16977;SDS011;8605;52.548;4.918;2022-12-05T08:51:31;10.87;;;5.00;;
16977;SDS011;8605;52.548;4.918;2022-12-05T08:56:55;7.07;;;4.43;;
16977;SDS011;8605;52.548;4.918;2022-12-05T09:02:19;7.83;;;5.07;;
16977;SDS011;8605;52.548;4.918;2022-12-05T09:07:42;6.77;;;4.03;;
16977;SDS011;8605;52.548;4.918;2022-12-05T09:13:06;5.87;;;4.23;;
16977;SDS011;8605;52.548;4.918;2022-12-05T09:18:30;8.37;;;3.73;;
16977;SDS011;8605;52.548;4.918;2022-12-05T09:23:53;5.83;;;3.97;;
16977;SDS011;8605;52.548;4.918;2022-12-05T09:29:16;9.83;;;4.20;;
16977;SDS011;8605;52.548;4.918;2022-12-05T09:34:41;6.23;;;3.90;;
16977;SDS011;8605;52.548;4.918;2022-12-05T09:40:05;7.97;;;4.50;;
16977;SDS011;8605;52.548;4.918;2022-12-05T09:45:29;7.80;;;4.40;;
16977;SDS011;8605;52.548;4.918;2022-12-05T09:50:58;10.37;;;4.77;;
16977;SDS011;8605;52.548;4.918;2022-12-05T09:56:23;6.67;;;4.27;;
16977;SDS011;8605;52.548;4.918;2022-12-05T10:01:50;5.07;;;3.30;;
16977;SDS011;8605;52.548;4.918;2022-12-05T10:07:20;9.43;;;4.20;;
16977;SDS011;8605;52.548;4.918;2022-12-05T10:12:47;6.57;;;3.67;;
16977;SDS011;8605;52.548;4.918;2022-12-05T10:18:19;5.50;;;4.00;;
16977;SDS011;8605;52.548;4.918;2022-12-05T10:23:54;7.70;;;3.77;;
16977;SDS011;8605;52.548;4.918;2022-12-05T10:29:21;11.90;;;5.77;;
16977;SDS011;8605;52.548;4.918;2022-12-05T10:34:45;7.40;;;4.17;;
16977;SDS011;8605;52.548;4.918;2022-12-05T10:40:12;9.80;;;3.77;;
16977;SDS011;8605;52.548;4.918;2022-12-05T10:45:36;6.77;;;4.10;;
16977;SDS011;8605;52.548;4.918;2022-12-05T10:51:03;8.53;;;4.77;;
16977;SDS011;8605;52.548;4.918;2022-12-05T10:56:36;5.27;;;3.43;;
16977;SDS011;8605;52.548;4.918;2022-12-05T11:02:00;7.20;;;4.20;;
16977;SDS011;8605;52.548;4.918;2022-12-05T11:07:28;12.33;;;4.97;;
16977;SDS011;8605;52.548;4.918;2022-12-05T11:12:54;6.83;;;4.33;;
16977;SDS011;8605;52.548;4.918;2022-12-05T11:18:24;6.27;;;3.93;;
16977;SDS011;8605;52.548;4.918;2022-12-05T11:23:49;11.10;;;5.33;;
16977;SDS011;8605;52.548;4.918;2022-12-05T11:29:25;8.53;;;4.40;;
16977;SDS011;8605;52.548;4.918;2022-12-05T11:34:52;9.30;;;6.10;;
16977;SDS011;8605;52.548;4.918;2022-12-05T11:40:21;10.20;;;4.53;;
16977;SDS011;8605;52.548;4.918;2022-12-05T11:45:56;13.17;;;4.67;;
16977;SDS011;8605;52.548;4.918;2022-12-05T11:51:33;7.30;;;4.97;;
16977;SDS011;8605;52.548;4.918;2022-12-05T11:56:59;33.23;;;6.30;;
16977;SDS011;8605;52.548;4.918;2022-12-05T12:02:30;11.03;;;6.60;;
16977;SDS011;8605;52.548;4.918;2022-12-05T12:08:02;7.10;;;3.83;;
16977;SDS011;8605;52.548;4.918;2022-12-05T12:13:34;12.13;;;5.73;;
16977;SDS011;8605;52.548;4.918;2022-12-05T12:19:09;9.30;;;4.53;;
16977;SDS011;8605;52.548;4.918;2022-12-05T12:24:45;9.57;;;3.60;;
16977;SDS011;8605;52.548;4.918;2022-12-05T12:30:21;9.63;;;4.53;;
16977;SDS011;8605;52.548;4.918;2022-12-05T12:35:49;6.97;;;3.40;;
16977;SDS011;8605;52.548;4.918;2022-12-05T12:41:16;5.47;;;3.57;;
16977;SDS011;8605;52.548;4.918;2022-12-05T12:46:51;10.23;;;4.93;;
16977;SDS011;8605;52.548;4.918;2022-12-05T12:52:20;8.67;;;4.30;;
16977;SDS011;8605;52.548;4.918;2022-12-05T12:57:49;7.37;;;4.40;;
16977;SDS011;8605;52.548;4.918;2022-12-05T13:03:19;5.33;;;3.17;;
16977;SDS011;8605;52.548;4.918;2022-12-05T13:08:47;8.03;;;3.40;;
16977;SDS011;8605;52.548;4.918;2022-12-05T13:14:13;8.37;;;4.03;;
16977;SDS011;8605;52.548;4.918;2022-12-05T13:19:38;8.30;;;3.50;;
16977;SDS011;8605;52.548;4.918;2022-12-05T13:25:05;9.43;;;5.30;;
16977;SDS011;8605;52.548;4.918;2022-12-05T13:30:34;9.30;;;5.13;;
16977;SDS011;8605;52.548;4.918;2022-12-05T13:36:17;5.77;;;3.20;;
16977;SDS011;8605;52.548;4.918;2022-12-05T13:42:00;8.93;;;3.20;;
16977;SDS011;8605;52.548;4.918;2022-12-05T13:47:37;9.93;;;4.23;;
16977;SDS011;8605;52.548;4.918;2022-12-05T13:53:16;5.20;;;2.97;;
16977;SDS011;8605;52.548;4.918;2022-12-05T13:58:47;8.47;;;3.63;;
16977;SDS011;8605;52.548;4.918;2022-12-05T14:04:22;5.47;;;3.43;;
16977;SDS011;8605;52.548;4.918;2022-12-05T14:10:02;14.57;;;8.00;;
16977;SDS011;8605;52.548;4.918;2022-12-05T14:15:29;5.73;;;3.13;;
16977;SDS011;8605;52.548;4.918;2022-12-05T14:20:57;5.53;;;3.33;;
16977;SDS011;8605;52.548;4.918;2022-12-05T14:26:29;4.37;;;2.77;;
16977;SDS011;8605;52.548;4.918;2022-12-05T14:32:04;5.20;;;2.77;;
16977;SDS011;8605;52.548;4.918;2022-12-05T14:37:33;3.83;;;2.50;;
16977;SDS011;8605;52.548;4.918;2022-12-05T14:42:58;6.70;;;3.53;;
16977;SDS011;8605;52.548;4.918;2022-12-05T14:48:25;5.37;;;3.30;;
16977;SDS011;8605;52.548;4.918;2022-12-05T14:53:51;10.37;;;3.37;;
16977;SDS011;8605;52.548;4.918;2022-12-05T14:59:19;6.00;;;3.13;;
16977;SDS011;8605;52.548;4.918;2022-12-05T15:04:48;6.37;;;3.83;;
16977;SDS011;8605;52.548;4.918;2022-12-05T15:10:15;7.07;;;3.83;;
16977;SDS011;8605;52.548;4.918;2022-12-05T15:15:43;5.67;;;2.70;;
16977;SDS011;8605;52.548;4.918;2022-12-05T15:21:09;3.57;;;2.23;;
16977;SDS011;8605;52.548;4.918;2022-12-05T15:26:39;4.40;;;2.23;;
16977;SDS011;8605;52.548;4.918;2022-12-05T15:32:13;9.97;;;4.80;;
16977;SDS011;8605;52.548;4.918;2022-12-05T15:37:42;8.53;;;2.93;;
16977;SDS011;8605;52.548;4.918;2022-12-05T15:43:25;5.53;;;2.97;;
16977;SDS011;8605;52.548;4.918;2022-12-05T15:48:50;5.93;;;3.20;;
16977;SDS011;8605;52.548;4.918;2022-12-05T15:54:15;7.10;;;2.70;;
16977;SDS011;8605;52.548;4.918;2022-12-05T15:59:40;10.20;;;3.00;;
16977;SDS011;8605;52.548;4.918;2022-12-05T16:05:15;3.53;;;2.50;;
16977;SDS011;8605;52.548;4.918;2022-12-05T16:10:42;6.13;;;3.63;;
16977;SDS011;8605;52.548;4.918;2022-12-05T16:16:05;7.87;;;3.37;;
16977;SDS011;8605;52.548;4.918;2022-12-05T16:21:29;10.10;;;3.10;;
16977;SDS011;8605;52.548;4.918;2022-12-05T16:27:02;6.67;;;3.13;;
16977;SDS011;8605;52.548;4.918;2022-12-05T16:32:27;9.20;;;3.47;;
16977;SDS011;8605;52.548;4.918;2022-12-05T16:37:50;6.67;;;2.33;;
16977;SDS011;8605;52.548;4.918;2022-12-05T16:43:27;2.63;;;2.40;;
16977;SDS011;8605;52.548;4.918;2022-12-05T16:49:18;3.33;;;2.20;;
16977;SDS011;8605;52.548;4.918;2022-12-05T16:54:44;6.00;;;3.17;;
16977;SDS011;8605;52.548;4.918;2022-12-05T17:00:12;4.00;;;2.17;;
16977;SDS011;8605;52.548;4.918;2022-12-05T17:05:36;5.07;;;2.83;;
16977;SDS011;8605;52.548;4.918;2022-12-05T17:10:59;4.53;;;2.83;;
16977;SDS011;8605;52.548;4.918;2022-12-05T17:16:25;5.20;;;2.47;;
16977;SDS011;8605;52.548;4.918;2022-12-05T17:21:49;4.17;;;1.83;;
16977;SDS011;8605;52.548;4.918;2022-12-05T17:27:12;6.23;;;2.73;;
16977;SDS011;8605;52.548;4.918;2022-12-05T17:32:37;4.07;;;2.47;;
16977;SDS011;8605;52.548;4.918;2022-12-05T17:38:00;4.60;;;2.23;;
16977;SDS011;8605;52.548;4.918;2022-12-05T17:43:24;8.00;;;3.30;;
16977;SDS011;8605;52.548;4.918;2022-12-05T17:48:49;4.93;;;2.93;;
16977;SDS011;8605;52.548;4.918;2022-12-05T17:54:13;8.03;;;4.73;;
16977;SDS011;8605;52.548;4.918;2022-12-05T17:59:36;8.70;;;5.30;;
16977;SDS011;8605;52.548;4.918;2022-12-05T18:05:00;7.50;;;4.03;;
16977;SDS011;8605;52.548;4.918;2022-12-05T18:10:24;5.47;;;2.77;;
16977;SDS011;8605;52.548;4.918;2022-12-05T18:15:47;4.97;;;2.63;;
16977;SDS011;8605;52.548;4.918;2022-12-05T18:21:11;3.80;;;2.93;;
16977;SDS011;8605;52.548;4.918;2022-12-05T18:26:35;5.27;;;2.73;;
16977;SDS011;8605;52.548;4.918;2022-12-05T18:31:58;4.87;;;3.70;;
16977;SDS011;8605;52.548;4.918;2022-12-05T18:37:22;9.10;;;5.20;;
16977;SDS011;8605;52.548;4.918;2022-12-05T18:42:46;8.80;;;3.73;;
16977;SDS011;8605;52.548;4.918;2022-12-05T18:48:09;6.67;;;3.33;;
16977;SDS011;8605;52.548;4.918;2022-12-05T18:53:54;8.00;;;3.17;;
16977;SDS011;8605;52.548;4.918;2022-12-05T18:59:18;10.17;;;3.33;;
16977;SDS011;8605;52.548;4.918;2022-12-05T19:04:42;7.03;;;3.00;;
16977;SDS011;8605;52.548;4.918;2022-12-05T19:10:08;8.83;;;2.70;;
16977;SDS011;8605;52.548;4.918;2022-12-05T19:15:31;6.10;;;2.83;;
16977;SDS011;8605;52.548;4.918;2022-12-05T19:20:55;6.97;;;3.20;;
16977;SDS011;8605;52.548;4.918;2022-12-05T19:26:19;6.30;;;2.73;;
16977;SDS011;8605;52.548;4.918;2022-12-05T19:31:43;6.80;;;2.30;;
16977;SDS011;8605;52.548;4.918;2022-12-05T19:37:06;9.10;;;4.27;;
16977;SDS011;8605;52.548;4.918;2022-12-05T19:42:31;5.23;;;2.83;;
16977;SDS011;8605;52.548;4.918;2022-12-05T19:47:54;8.90;;;2.60;;
16977;SDS011;8605;52.548;4.918;2022-12-05T19:53:17;4.13;;;2.90;;
16977;SDS011;8605;52.548;4.918;2022-12-05T19:58:42;4.50;;;3.10;;
16977;SDS011;8605;52.548;4.918;2022-12-05T20:04:06;3.30;;;2.23;;
16977;SDS011;8605;52.548;4.918;2022-12-05T20:09:30;2.97;;;2.23;;
16977;SDS011;8605;52.548;4.918;2022-12-05T20:14:56;10.50;;;3.73;;
16977;SDS011;8605;52.548;4.918;2022-12-05T20:20:19;5.10;;;2.83;;
16977;SDS011;8605;52.548;4.918;2022-12-05T20:25:42;6.03;;;3.20;;
16977;SDS011;8605;52.548;4.918;2022-12-05T20:31:07;14.17;;;2.93;;
16977;SDS011;8605;52.548;4.918;2022-12-05T20:36:33;7.30;;;3.17;;
16977;SDS011;8605;52.548;4.918;2022-12-05T20:41:56;7.20;;;5.03;;
16977;SDS011;8605;52.548;4.918;2022-12-05T20:47:21;7.67;;;5.03;;
16977;SDS011;8605;52.548;4.918;2022-12-05T20:52:44;5.50;;;2.13;;
16977;SDS011;8605;52.548;4.918;2022-12-05T20:58:07;13.13;;;2.97;;
16977;SDS011;8605;52.548;4.918;2022-12-05T21:03:32;5.37;;;3.13;;
16977;SDS011;8605;52.548;4.918;2022-12-05T21:08:55;5.23;;;2.70;;
16977;SDS011;8605;52.548;4.918;2022-12-05T21:14:18;7.00;;;3.17;;
16977;SDS011;8605;52.548;4.918;2022-12-05T21:19:43;6.47;;;2.63;;
16977;SDS011;8605;52.548;4.918;2022-12-05T21:25:07;6.73;;;2.17;;
16977;SDS011;8605;52.548;4.918;2022-12-05T21:30:30;13.60;;;3.67;;
16977;SDS011;8605;52.548;4.918;2022-12-05T21:35:57;5.53;;;2.87;;
16977;SDS011;8605;52.548;4.918;2022-12-05T21:41:20;3.13;;;2.03;;
16977;SDS011;8605;52.548;4.918;2022-12-05T21:46:43;5.83;;;3.17;;
16977;SDS011;8605;52.548;4.918;2022-12-05T21:52:07;7.17;;;4.37;;
16977;SDS011;8605;52.548;4.918;2022-12-05T21:57:31;5.93;;;2.03;;
16977;SDS011;8605;52.548;4.918;2022-12-05T22:02:54;2.37;;;1.80;;
16977;SDS011;8605;52.548;4.918;2022-12-05T22:08:18;4.33;;;2.00;;
16977;SDS011;8605;52.548;4.918;2022-12-05T22:13:42;7.03;;;2.27;;
16977;SDS011;8605;52.548;4.918;2022-12-05T22:19:05;5.53;;;2.40;;
16977;SDS011;8605;52.548;4.918;2022-12-05T22:24:29;2.37;;;1.87;;
16977;SDS011;8605;52.548;4.918;2022-12-05T22:29:53;5.97;;;2.43;;
16977;SDS011;8605;52.548;4.918;2022-12-05T22:35:16;3.97;;;2.43;;
16977;SDS011;8605;52.548;4.918;2022-12-05T22:40:41;4.13;;;2.23;;
16977;SDS011;8605;52.548;4.918;2022-12-05T22:46:04;6.80;;;2.70;;
16977;SDS011;8605;52.548;4.918;2022-12-05T22:51:28;8.67;;;2.57;;
16977;SDS011;8605;52.548;4.918;2022-12-05T22:56:52;6.80;;;2.17;;
16977;SDS011;8605;52.548;4.918;2022-12-05T23:02:15;2.40;;;1.37;;
16977;SDS011;8605;52.548;4.918;2022-12-05T23:07:39;5.20;;;1.63;;
16977;SDS011;8605;52.548;4.918;2022-12-05T23:13:03;6.33;;;2.03;;
16977;SDS011;8605;52.548;4.918;2022-12-05T23:18:27;6.17;;;2.93;;
16977;SDS011;8605;52.548;4.918;2022-12-05T23:23:51;4.13;;;2.00;;
16977;SDS011;8605;52.548;4.918;2022-12-05T23:29:16;4.80;;;2.50;;
16977;SDS011;8605;52.548;4.918;2022-12-05T23:34:39;4.60;;;3.50;;
16977;SDS011;8605;52.548;4.918;2022-12-05T23:40:03;8.10;;;2.23;;
16977;SDS011;8605;52.548;4.918;2022-12-05T23:45:29;2.80;;;1.67;;
16977;SDS011;8605;52.548;4.918;2022-12-05T23:50:56;1.83;;;1.60;;
16977;SDS011;8605;52.548;4.918;2022-12-05T23:56:21;5.90;;;2.63;;
